createdAt,value
2022-12-14T00:01:34.693Z,1.91
2022-12-14T00:04:01.297Z,1.95
2022-12-14T00:06:30.918Z,1.88
2022-12-14T00:09:00.370Z,1.77
2022-12-14T00:11:27.245Z,1.86
2022-12-14T00:13:56.561Z,1.85
2022-12-14T00:16:24.962Z,1.86
2022-12-14T00:18:53.852Z,2.02
2022-12-14T00:21:21.496Z,2.05
2022-12-14T00:23:50.633Z,1.94
2022-12-14T00:26:28.881Z,1.96
2022-12-14T00:28:56.162Z,2.08
2022-12-14T00:31:24.173Z,2.04
2022-12-14T00:33:51.640Z,2.05
2022-12-14T00:36:18.504Z,2.14
2022-12-14T00:38:45.306Z,2.06
2022-12-14T00:41:12.685Z,2.00
2022-12-14T00:43:40.930Z,1.97
2022-12-14T00:46:07.968Z,1.80
2022-12-14T00:48:34.969Z,2.03
2022-12-14T00:51:02.585Z,2.05
2022-12-14T00:53:29.449Z,2.04
2022-12-14T00:55:56.087Z,1.81
2022-12-14T00:58:24.884Z,1.96
2022-12-14T01:01:06.062Z,1.92
2022-12-14T01:03:33.819Z,1.63
2022-12-14T01:06:00.974Z,1.70
2022-12-14T01:08:35.458Z,1.91
2022-12-14T01:11:06.863Z,1.94
2022-12-14T01:13:34.178Z,1.99
2022-12-14T01:16:10.595Z,2.27
2022-12-14T01:18:38.485Z,2.22
2022-12-14T01:21:24.173Z,2.24
2022-12-14T01:24:00.259Z,2.30
2022-12-14T01:26:29.290Z,2.29
2022-12-14T01:28:58.768Z,2.38
2022-12-14T01:31:29.876Z,2.29
2022-12-14T01:33:57.022Z,2.32
2022-12-14T01:36:27.121Z,2.52
2022-12-14T01:38:59.629Z,2.41
2022-12-14T01:41:33.798Z,2.47
2022-12-14T01:44:24.890Z,2.32
2022-12-14T01:47:10.594Z,2.57
2022-12-14T01:49:49.934Z,2.49
2022-12-14T01:52:44.112Z,2.40
2022-12-14T01:55:21.429Z,2.38
2022-12-14T01:57:51.790Z,2.20
2022-12-14T02:00:18.439Z,1.88
2022-12-14T02:02:51.658Z,2.06
2022-12-14T02:05:20.828Z,1.97
2022-12-14T02:07:49.872Z,2.07
2022-12-14T02:10:17.696Z,2.14
2022-12-14T02:12:51.070Z,2.19
2022-12-14T02:15:18.355Z,2.11
2022-12-14T02:17:46.632Z,2.18
2022-12-14T02:20:16.237Z,2.27
2022-12-14T02:22:54.986Z,2.20
2022-12-14T02:25:54.317Z,2.14
2022-12-14T02:28:20.875Z,2.17
2022-12-14T02:31:07.065Z,2.19
2022-12-14T02:33:46.342Z,2.16
2022-12-14T02:36:35.233Z,1.69
2022-12-14T02:39:13.946Z,2.12
2022-12-14T02:42:05.488Z,1.67
2022-12-14T02:44:39.145Z,1.78
2022-12-14T02:47:06.633Z,1.60
2022-12-14T02:50:02.414Z,1.45
2022-12-14T02:52:35.093Z,1.43
2022-12-14T02:55:23.218Z,1.41
2022-12-14T02:57:57.329Z,1.27
2022-12-14T03:00:25.193Z,1.36
2022-12-14T03:02:53.306Z,1.46
2022-12-14T03:05:20.058Z,1.48
2022-12-14T03:07:57.375Z,1.60
2022-12-14T03:10:30.322Z,1.58
2022-12-14T03:13:25.704Z,1.44
2022-12-14T03:16:07.280Z,1.47
2022-12-14T03:18:39.487Z,1.37
2022-12-14T03:21:10.416Z,1.54
2022-12-14T03:23:41.639Z,1.51
2022-12-14T03:26:17.227Z,1.29
2022-12-14T03:29:31.124Z,1.40
2022-12-14T03:32:10.718Z,1.42
2022-12-14T03:34:46.152Z,1.42
2022-12-14T03:37:48.770Z,1.43
2022-12-14T03:40:22.823Z,1.21
2022-12-14T03:42:58.529Z,1.44
2022-12-14T03:45:38.817Z,1.23
2022-12-14T03:48:15.325Z,1.42
2022-12-14T03:50:48.584Z,1.33
2022-12-14T03:53:25.592Z,1.47
2022-12-14T03:56:20.088Z,1.66
2022-12-14T03:59:00.158Z,1.65
2022-12-14T04:01:26.869Z,1.65
2022-12-14T04:04:15.124Z,1.58
2022-12-14T04:06:56.464Z,1.49
2022-12-14T04:09:59.035Z,1.55
2022-12-14T04:12:53.916Z,1.54
2022-12-14T04:15:44.521Z,1.31
2022-12-14T04:18:37.237Z,1.26
2022-12-14T04:21:11.974Z,1.55
2022-12-14T04:24:22.081Z,1.53
2022-12-14T04:27:15.425Z,1.39
2022-12-14T04:29:59.181Z,1.39
2022-12-14T04:32:29.021Z,1.40
2022-12-14T04:35:21.980Z,1.15
2022-12-14T04:37:53.311Z,1.19
2022-12-14T04:40:33.209Z,1.22
2022-12-14T04:43:03.432Z,1.29
2022-12-14T04:45:37.727Z,1.37
2022-12-14T04:48:20.735Z,1.35
2022-12-14T04:50:55.542Z,1.25
2022-12-14T04:53:27.816Z,1.39
2022-12-14T04:56:01.303Z,1.40
2022-12-14T04:58:30.704Z,1.08
2022-12-14T05:01:16.370Z,1.45
2022-12-14T05:04:32.733Z,1.42
2022-12-14T05:07:41.587Z,1.41
2022-12-14T05:10:19.083Z,1.45
2022-12-14T05:13:05.436Z,1.44
2022-12-14T05:15:39.227Z,1.45
2022-12-14T05:18:07.539Z,1.45
2022-12-14T05:20:34.193Z,1.53
2022-12-14T05:23:00.960Z,1.52
2022-12-14T05:25:27.668Z,1.74
2022-12-14T05:27:54.305Z,1.74
2022-12-14T05:30:21.173Z,1.84
2022-12-14T05:32:48.013Z,1.97
2022-12-14T05:35:15.465Z,1.92
2022-12-14T05:37:42.717Z,1.81
2022-12-14T05:40:10.181Z,2.03
2022-12-14T05:42:44.155Z,2.11
2022-12-14T05:45:12.709Z,2.24
2022-12-14T05:47:39.797Z,2.01
2022-12-14T05:50:07.633Z,2.16
2022-12-14T05:52:34.586Z,2.21
2022-12-14T05:55:04.602Z,2.22
2022-12-14T05:57:32.450Z,2.34
2022-12-14T05:59:59.131Z,2.43
2022-12-14T06:02:26.127Z,2.49
2022-12-14T06:04:52.842Z,2.37
2022-12-14T06:07:24.547Z,2.54
2022-12-14T06:09:54.397Z,2.69
2022-12-14T06:12:21.163Z,2.46
2022-12-14T06:14:47.770Z,2.48
2022-12-14T06:17:14.405Z,2.53
2022-12-14T06:19:41.024Z,2.73
2022-12-14T06:22:07.620Z,2.74
2022-12-14T06:24:34.440Z,2.87
2022-12-14T06:27:01.162Z,2.90
2022-12-14T06:29:27.894Z,3.03
2022-12-14T06:31:55.411Z,3.02
2022-12-14T06:34:28.045Z,3.11
2022-12-14T06:36:55.253Z,3.13
2022-12-14T06:39:21.873Z,3.24
2022-12-14T06:41:52.003Z,3.45
2022-12-14T06:44:19.089Z,3.31
2022-12-14T06:46:45.854Z,3.35
2022-12-14T06:49:14.462Z,3.41
2022-12-14T06:51:42.623Z,3.39
2022-12-14T06:54:11.753Z,3.33
2022-12-14T06:56:40.738Z,3.67
2022-12-14T06:59:08.858Z,3.75
2022-12-14T07:01:36.393Z,3.47
2022-12-14T07:04:03.180Z,3.73
2022-12-14T07:06:37.901Z,3.76
2022-12-14T07:09:05.543Z,3.63
2022-12-14T07:11:32.486Z,3.53
2022-12-14T07:14:01.630Z,3.57
2022-12-14T07:16:32.227Z,3.66
2022-12-14T07:19:00.452Z,3.40
2022-12-14T07:21:27.539Z,3.71
2022-12-14T07:23:54.307Z,3.98
2022-12-14T07:26:25.243Z,4.37
2022-12-14T07:28:52.738Z,4.22
2022-12-14T07:31:24.951Z,4.09
2022-12-14T07:33:56.575Z,4.11
2022-12-14T07:36:25.125Z,4.42
2022-12-14T07:38:52.589Z,4.47
2022-12-14T07:41:23.096Z,4.77
2022-12-14T07:43:52.077Z,4.95
2022-12-14T07:46:24.103Z,4.95
2022-12-14T07:48:53.766Z,5.04
2022-12-14T07:51:23.166Z,5.16
2022-12-14T07:53:51.123Z,5.26
2022-12-14T07:56:23.619Z,5.45
2022-12-14T07:58:50.272Z,5.55
2022-12-14T08:01:22.585Z,5.94
2022-12-14T08:03:55.282Z,6.53
2022-12-14T08:06:23.515Z,7.02
2022-12-14T08:08:50.406Z,6.98
2022-12-14T08:11:18.089Z,7.47
2022-12-14T08:13:44.882Z,7.52
2022-12-14T08:16:14.187Z,8.42
2022-12-14T08:18:41.996Z,8.80
2022-12-14T08:21:09.817Z,8.68
2022-12-14T08:23:37.760Z,8.26
2022-12-14T08:26:06.699Z,8.53
2022-12-14T08:28:35.752Z,8.55
2022-12-14T08:31:07.584Z,7.89
2022-12-14T08:33:36.157Z,7.44
2022-12-14T08:36:10.740Z,6.83
2022-12-14T08:38:38.331Z,6.23
2022-12-14T08:41:07.132Z,6.23
2022-12-14T08:43:34.374Z,6.83
2022-12-14T08:46:01.297Z,7.14
2022-12-14T08:48:28.143Z,7.41
2022-12-14T08:50:54.875Z,8.19
2022-12-14T08:53:21.622Z,8.61
2022-12-14T08:55:48.421Z,8.36
2022-12-14T08:58:17.306Z,8.34
2022-12-14T09:00:44.111Z,8.06
2022-12-14T09:03:11.997Z,8.34
2022-12-14T09:05:38.704Z,8.59
2022-12-14T09:08:05.681Z,8.37
2022-12-14T09:10:32.341Z,7.70
2022-12-14T09:12:59.124Z,7.94
2022-12-14T09:15:26.397Z,8.98
2022-12-14T09:17:53.236Z,10.14
2022-12-14T09:20:19.853Z,10.57
2022-12-14T09:22:46.593Z,10.08
2022-12-14T09:25:13.307Z,8.96
2022-12-14T09:27:39.960Z,8.51
2022-12-14T09:30:07.015Z,7.83
2022-12-14T09:32:33.651Z,7.58
2022-12-14T09:35:01.420Z,7.52
2022-12-14T09:37:27.983Z,7.41
2022-12-14T09:39:54.789Z,7.23
2022-12-14T09:42:53.672Z,7.17
2022-12-14T09:45:32.444Z,7.13
2022-12-14T09:48:21.155Z,6.97
2022-12-14T09:50:50.824Z,6.87
2022-12-14T09:53:18.789Z,6.59
2022-12-14T09:55:49.919Z,6.39
2022-12-14T09:58:21.037Z,6.64
2022-12-14T10:01:22.243Z,6.46
2022-12-14T10:04:02.330Z,6.55
2022-12-14T10:06:35.477Z,6.41
2022-12-14T10:09:03.146Z,6.51
2022-12-14T10:11:47.819Z,6.41
2022-12-14T10:14:25.008Z,6.33
2022-12-14T10:17:17.495Z,6.32
2022-12-14T10:19:54.468Z,6.16
2022-12-14T10:22:46.638Z,6.32
2022-12-14T10:25:15.743Z,6.27
2022-12-14T10:28:09.720Z,6.10
2022-12-14T10:30:36.165Z,6.04
2022-12-14T10:33:24.167Z,5.94
2022-12-14T10:35:57.899Z,6.03
2022-12-14T10:38:33.931Z,6.26
2022-12-14T10:41:14.013Z,6.13
2022-12-14T10:43:58.283Z,6.15
2022-12-14T10:46:43.584Z,6.28
2022-12-14T10:49:13.320Z,6.43
2022-12-14T10:51:49.783Z,6.28
2022-12-14T10:54:39.511Z,6.87
2022-12-14T10:57:06.217Z,6.93
2022-12-14T10:59:43.719Z,7.13
2022-12-14T11:02:28.169Z,7.23
2022-12-14T11:04:58.505Z,7.67
2022-12-14T11:07:34.026Z,8.21
2022-12-14T11:10:19.172Z,8.40
2022-12-14T11:13:13.671Z,8.60
2022-12-14T11:15:46.046Z,8.66
2022-12-14T11:18:15.858Z,9.06
2022-12-14T11:20:52.255Z,9.37
2022-12-14T11:23:31.158Z,9.43
2022-12-14T11:26:03.944Z,9.07
2022-12-14T11:28:38.185Z,9.17
2022-12-14T11:31:23.023Z,8.99
2022-12-14T11:33:58.273Z,8.61
2022-12-14T11:36:52.649Z,8.29
2022-12-14T11:39:25.084Z,8.04
2022-12-14T11:41:57.758Z,8.04
2022-12-14T11:44:30.994Z,7.95
2022-12-14T11:46:57.647Z,7.93
2022-12-14T11:49:36.181Z,7.93
2022-12-14T11:52:06.006Z,8.00
2022-12-14T11:54:56.023Z,7.46
2022-12-14T11:57:34.427Z,7.30
2022-12-14T12:00:21.700Z,7.30
2022-12-14T12:02:55.528Z,7.51
2022-12-14T12:05:23.750Z,7.69
2022-12-14T12:07:50.378Z,7.79
2022-12-14T12:10:19.745Z,7.87
2022-12-14T12:13:02.230Z,7.95
2022-12-14T12:15:31.959Z,8.34
2022-12-14T12:18:16.439Z,9.07
2022-12-14T12:21:04.640Z,10.14
2022-12-14T12:23:52.638Z,10.89
2022-12-14T12:26:32.500Z,10.70
2022-12-14T12:29:24.395Z,10.71
2022-12-14T12:32:12.229Z,11.00
2022-12-14T12:34:47.969Z,13.33
2022-12-14T12:37:26.856Z,14.87
2022-12-14T12:40:02.339Z,15.28
2022-12-14T12:42:53.707Z,16.01
2022-12-14T12:45:35.654Z,16.81
2022-12-14T12:48:22.445Z,16.35
2022-12-14T12:50:53.477Z,16.67
2022-12-14T12:53:39.122Z,17.47
2022-12-14T12:56:13.561Z,17.39
2022-12-14T12:58:41.252Z,17.65
2022-12-14T13:01:30.945Z,17.08
2022-12-14T13:04:03.184Z,16.76
2022-12-14T13:06:54.598Z,16.79
2022-12-14T13:09:27.246Z,17.87
2022-12-14T13:11:55.234Z,17.92
2022-12-14T13:14:30.846Z,17.54
2022-12-14T13:17:00.797Z,16.56
2022-12-14T13:19:50.709Z,15.22
2022-12-14T13:22:24.925Z,15.24
2022-12-14T13:24:59.002Z,15.67
2022-12-14T13:27:40.850Z,16.02
2022-12-14T13:30:55.882Z,14.29
2022-12-14T13:33:47.215Z,12.42
2022-12-14T13:36:40.110Z,11.57
2022-12-14T13:39:18.813Z,10.59
2022-12-14T13:41:45.409Z,10.14
2022-12-14T13:44:12.036Z,9.63
2022-12-14T13:46:39.055Z,9.41
2022-12-14T13:49:15.838Z,8.95
2022-12-14T13:51:50.242Z,8.68
2022-12-14T13:54:33.320Z,8.33
2022-12-14T13:57:20.735Z,8.01
2022-12-14T13:59:56.307Z,7.65
2022-12-14T14:02:32.576Z,7.48
2022-12-14T14:05:15.747Z,7.48
2022-12-14T14:08:01.840Z,7.16
2022-12-14T14:10:37.577Z,7.12
2022-12-14T14:13:27.569Z,6.90
2022-12-14T14:16:28.430Z,6.74
2022-12-14T14:19:20.881Z,6.91
2022-12-14T14:22:23.345Z,6.85
2022-12-14T14:25:00.732Z,6.76
2022-12-14T14:27:36.560Z,6.73
2022-12-14T14:30:23.036Z,6.71
2022-12-14T14:32:54.004Z,6.35
2022-12-14T14:35:27.885Z,6.29
2022-12-14T14:38:02.979Z,6.40
2022-12-14T14:41:06.654Z,6.30
2022-12-14T14:43:37.822Z,6.19
2022-12-14T14:46:06.825Z,6.01
2022-12-14T14:48:59.699Z,6.08
2022-12-14T14:51:29.688Z,5.90
2022-12-14T14:55:06.539Z,5.87
2022-12-14T14:57:54.030Z,5.75
2022-12-14T15:00:21.760Z,5.58
2022-12-14T15:02:52.173Z,5.55
2022-12-14T15:05:44.751Z,5.57
2022-12-14T15:08:34.465Z,5.52
2022-12-14T15:11:06.425Z,5.36
2022-12-14T15:13:54.024Z,5.69
2022-12-14T15:16:33.940Z,5.47
2022-12-14T15:19:36.860Z,5.77
2022-12-14T15:22:05.446Z,5.71
2022-12-14T15:24:39.000Z,5.41
2022-12-14T15:27:18.189Z,5.42
2022-12-14T15:29:49.386Z,5.71
2022-12-14T15:32:21.594Z,5.66
2022-12-14T15:34:57.419Z,5.31
2022-12-14T15:37:56.467Z,5.59
2022-12-14T15:40:30.639Z,5.57
2022-12-14T15:43:00.092Z,5.31
2022-12-14T15:45:31.380Z,5.41
2022-12-14T15:48:21.992Z,5.38
2022-12-14T15:50:55.505Z,5.17
2022-12-14T15:53:34.626Z,5.42
2022-12-14T15:56:11.822Z,5.31
2022-12-14T15:58:59.780Z,5.05
2022-12-14T16:01:46.107Z,5.14
2022-12-14T16:04:23.594Z,5.30
2022-12-14T16:07:09.568Z,5.08
2022-12-14T16:09:41.235Z,5.34
2022-12-14T16:12:32.489Z,5.10
2022-12-14T16:15:00.778Z,5.06
2022-12-14T16:17:34.158Z,4.98
2022-12-14T16:20:32.037Z,5.13
2022-12-14T16:23:01.630Z,5.12
2022-12-14T16:25:30.113Z,5.03
2022-12-14T16:27:57.193Z,4.97
2022-12-14T16:30:27.528Z,5.17
2022-12-14T16:33:08.436Z,5.16
2022-12-14T16:35:37.668Z,5.01
2022-12-14T16:38:07.689Z,5.14
2022-12-14T16:40:43.770Z,5.15
2022-12-14T16:43:27.225Z,4.96
2022-12-14T16:46:13.969Z,5.15
2022-12-14T16:48:50.361Z,4.87
2022-12-14T16:51:58.207Z,5.21
2022-12-14T16:54:29.939Z,5.21
2022-12-14T16:57:17.229Z,5.17
2022-12-14T16:59:46.658Z,5.19
2022-12-14T17:02:31.887Z,5.32
2022-12-14T17:05:01.316Z,5.05
2022-12-14T17:07:30.642Z,5.28
2022-12-14T17:10:04.543Z,5.17
2022-12-14T17:12:31.249Z,5.22
2022-12-14T17:14:58.014Z,5.11
2022-12-14T17:17:33.464Z,5.18
2022-12-14T17:20:00.625Z,5.25
2022-12-14T17:22:32.847Z,5.35
2022-12-14T17:25:02.470Z,5.50
2022-12-14T17:27:29.460Z,5.43
2022-12-14T17:29:57.427Z,5.60
2022-12-14T17:32:29.249Z,5.62
2022-12-14T17:34:56.183Z,5.41
2022-12-14T17:37:24.724Z,5.56
2022-12-14T17:39:51.683Z,5.60
2022-12-14T17:42:21.776Z,5.56
2022-12-14T17:44:56.013Z,5.27
2022-12-14T17:47:23.000Z,5.39
2022-12-14T17:49:49.651Z,5.34
2022-12-14T17:52:19.896Z,5.64
2022-12-14T17:54:47.199Z,5.56
2022-12-14T17:57:20.267Z,5.59
2022-12-14T17:59:47.979Z,5.60
2022-12-14T18:02:33.420Z,5.61
2022-12-14T18:05:05.023Z,5.44
2022-12-14T18:07:31.742Z,5.55
2022-12-14T18:10:00.900Z,5.10
2022-12-14T18:12:27.624Z,5.09
2022-12-14T18:14:54.532Z,5.41
2022-12-14T18:17:21.201Z,5.54
2022-12-14T18:19:49.477Z,5.47
2022-12-14T18:22:16.751Z,5.53
2022-12-14T18:24:43.508Z,5.58
2022-12-14T18:27:13.676Z,5.71
2022-12-14T18:29:40.389Z,5.62
2022-12-14T18:32:07.079Z,5.54
2022-12-14T18:34:33.849Z,5.44
2022-12-14T18:37:00.456Z,5.61
2022-12-14T18:39:27.105Z,5.78
2022-12-14T18:41:54.866Z,5.84
2022-12-14T18:44:22.401Z,5.83
2022-12-14T18:46:49.267Z,5.80
2022-12-14T18:49:16.218Z,5.86
2022-12-14T18:51:43.321Z,6.09
2022-12-14T18:54:11.647Z,6.14
2022-12-14T18:56:41.146Z,6.21
2022-12-14T18:59:07.779Z,6.13
2022-12-14T19:01:34.741Z,6.20
2022-12-14T19:04:01.604Z,6.11
2022-12-14T19:06:45.265Z,5.88
2022-12-14T19:09:17.100Z,5.99
2022-12-14T19:11:44.147Z,5.77
2022-12-14T19:14:11.436Z,5.75
2022-12-14T19:16:38.596Z,5.50
2022-12-14T19:19:05.226Z,5.54
2022-12-14T19:21:32.193Z,5.44
2022-12-14T19:24:02.129Z,5.71
2022-12-14T19:26:30.751Z,5.79
2022-12-14T19:28:57.600Z,5.76
2022-12-14T19:31:26.390Z,5.73
2022-12-14T19:33:53.902Z,5.75
2022-12-14T19:36:20.502Z,5.58
2022-12-14T19:38:49.188Z,5.78
2022-12-14T19:41:17.778Z,5.73
2022-12-14T19:43:44.637Z,5.63
2022-12-14T19:46:15.678Z,5.57
2022-12-14T19:48:42.539Z,5.66
2022-12-14T19:51:11.825Z,5.75
2022-12-14T19:53:40.457Z,5.86
2022-12-14T19:56:07.270Z,5.92
2022-12-14T19:58:33.963Z,5.78
2022-12-14T20:01:00.905Z,5.80
2022-12-14T20:03:28.857Z,5.89
2022-12-14T20:05:58.792Z,5.70
2022-12-14T20:08:27.888Z,5.72
2022-12-14T20:10:55.631Z,5.95
2022-12-14T20:13:24.395Z,6.00
2022-12-14T20:15:53.527Z,6.01
2022-12-14T20:18:21.946Z,6.06
2022-12-14T20:20:50.027Z,5.86
2022-12-14T20:23:19.333Z,5.97
2022-12-14T20:25:46.180Z,5.94
2022-12-14T20:28:12.907Z,5.99
2022-12-14T20:30:47.301Z,5.73
2022-12-14T20:33:14.302Z,5.82
2022-12-14T20:35:41.001Z,5.94
2022-12-14T20:38:08.221Z,5.90
2022-12-14T20:40:39.016Z,6.02
2022-12-14T20:43:07.924Z,5.94
2022-12-14T20:45:44.040Z,6.12
2022-12-14T20:48:10.861Z,5.90
2022-12-14T20:50:39.340Z,5.95
2022-12-14T20:53:06.686Z,6.11
2022-12-14T20:55:34.259Z,6.01
2022-12-14T20:58:01.449Z,6.03
2022-12-14T21:00:28.500Z,5.90
2022-12-14T21:02:55.378Z,5.79
2022-12-14T21:05:22.365Z,6.11
2022-12-14T21:07:49.148Z,5.96
2022-12-14T21:10:15.975Z,5.97
2022-12-14T21:12:42.778Z,6.12
2022-12-14T21:15:09.655Z,5.60
2022-12-14T21:17:36.360Z,5.80
2022-12-14T21:20:03.633Z,5.96
2022-12-14T21:22:30.745Z,5.85
2022-12-14T21:25:04.096Z,5.96
2022-12-14T21:27:32.702Z,5.81
2022-12-14T21:30:00.642Z,5.94
2022-12-14T21:32:28.232Z,5.90
2022-12-14T21:34:54.863Z,5.84
2022-12-14T21:37:22.872Z,5.81
2022-12-14T21:39:54.612Z,5.74
2022-12-14T21:42:25.724Z,5.94
2022-12-14T21:44:53.587Z,5.98
2022-12-14T21:47:29.979Z,5.56
2022-12-14T21:49:57.024Z,5.60
2022-12-14T21:52:29.214Z,5.74
2022-12-14T21:54:56.233Z,5.76
2022-12-14T21:57:49.745Z,5.94
2022-12-14T22:00:17.860Z,5.80
2022-12-14T22:02:44.596Z,5.72
2022-12-14T22:05:11.827Z,5.87
2022-12-14T22:07:38.660Z,5.88
2022-12-14T22:10:05.852Z,5.70
2022-12-14T22:12:32.570Z,5.69
2022-12-14T22:14:59.192Z,5.75
2022-12-14T22:17:25.905Z,5.65
2022-12-14T22:19:54.807Z,5.89
2022-12-14T22:22:21.478Z,5.99
2022-12-14T22:24:49.737Z,5.91
2022-12-14T22:27:20.423Z,5.94
2022-12-14T22:29:47.039Z,5.72
2022-12-14T22:32:14.411Z,5.58
2022-12-14T22:34:41.163Z,5.74
2022-12-14T22:37:07.903Z,5.71
2022-12-14T22:39:34.502Z,5.72
2022-12-14T22:42:01.074Z,5.84
2022-12-14T22:44:28.258Z,5.58
2022-12-14T22:46:55.053Z,5.74
2022-12-14T22:49:21.699Z,5.77
2022-12-14T22:51:48.328Z,5.57
2022-12-14T22:54:22.493Z,5.92
2022-12-14T22:56:56.819Z,5.82
2022-12-14T22:59:35.559Z,5.51
2022-12-14T23:02:02.802Z,5.68
2022-12-14T23:04:30.235Z,5.80
2022-12-14T23:06:56.996Z,5.55
2022-12-14T23:09:42.293Z,5.56
2022-12-14T23:12:27.344Z,5.64
2022-12-14T23:15:12.265Z,5.65
2022-12-14T23:18:06.246Z,5.68
2022-12-14T23:20:51.578Z,5.68
2022-12-14T23:23:36.986Z,5.59
2022-12-14T23:26:23.028Z,5.54
2022-12-14T23:29:08.476Z,5.71
2022-12-14T23:31:54.025Z,5.81
2022-12-14T23:34:39.226Z,5.59
2022-12-14T23:37:24.362Z,5.64
2022-12-14T23:40:09.200Z,5.49
2022-12-14T23:42:54.526Z,5.68
2022-12-14T23:45:39.337Z,5.52
2022-12-14T23:48:24.685Z,5.66
2022-12-14T23:51:09.470Z,5.83
2022-12-14T23:53:54.853Z,5.58
2022-12-14T23:56:40.364Z,5.62
2022-12-14T23:59:31.502Z,5.69
